Charleston, SC

9:23 AM EDT on May 26, 2017 (GMT -0400)
Charleston Executive

Weather History for KJZI - February, 2014

Change the Weather History Date:

Saturday, February 15, 2014

  Actual Average (KCHS) Record (KCHS)
Temperature  
Mean Temperature 50 °F -  
Max Temperature 60 °F 65 °F 82 °F (1989)
Min Temperature 39 °F 41 °F 15 °F (1943)
Degree Days  
Heating Degree Days 16    
Moisture  
Dew Point 41 °F    
Average Humidity 68    
Maximum Humidity 100    
Minimum Humidity 36    
Precipitation  
Precipitation 0.00 in - - ()
Sea Level Pressure  
Sea Level Pressure 29.86 in    
Wind  
Wind Speed 13 mph (West)    
Max Wind Speed 23 mph    
Max Gust Speed 34 mph    
Visibility 10 miles    
Events Rain    
Averages and records for this station are not official NWS values.
T = Trace of Precipitation, MM = Missing Value Source: NWS Daily Summary

Daily Weather History Graph

Daily Weather History Graph

Search for Another Location

Airport or City:

Trip Planner

Search our weather history database for the weather conditions in past years. The results will help you decide how hot, cold, wet, or windy it might be!

Date:

Astronomy

Feb. 15, 2014 Rise Set
Actual Time 7:03 AM EST 6:05 PM EST
Civil Twilight 6:37 AM EST 6:30 PM EST
Nautical Twilight 6:08 AM EST 6:59 PM EST
Astronomical Twilight 5:40 AM EST 7:28 PM EST
Moon 6:58 PM EST (2/15) 7:05 AM EST (2/15)
Length of Visible Light 11h 52m
Length of Day
11h 02m
Full, 100% of the Moon is Illuminated
Feb 15
Full
Feb 22
Last Quarter
Mar 1
New
Mar 8
First Quarter
Mar 16
Full

Hourly Weather History & Observations

Time (EST) Temp. Windchill Dew Point Humidity Pressure Visibility Wind Dir Wind Speed Gust Speed Precip Events Conditions
12:15 AM 53.6 °F - 46.4 °F 77% 29.79 in 10.0 mi SW 11.5 mph 20.7 mph 0.00 in   Clear
12:35 AM 53.6 °F - 46.4 °F 77% 29.79 in 10.0 mi SSW 9.2 mph 17.3 mph 0.00 in   Clear
12:55 AM 53.6 °F - 46.4 °F 77% 29.77 in 10.0 mi SSW 13.8 mph 20.7 mph 0.00 in   Clear
1:15 AM 51.8 °F - 46.4 °F 82% 29.76 in 10.0 mi SSW 12.7 mph 18.4 mph 0.00 in   Clear
1:35 AM 51.8 °F - 46.4 °F 82% 29.76 in 10.0 mi SW 12.7 mph 21.9 mph 0.00 in   Clear
1:55 AM 51.8 °F - 46.4 °F 82% 29.76 in 10.0 mi SSW 13.8 mph 21.9 mph 0.00 in   Clear
2:15 AM 51.8 °F - 48.2 °F 88% 29.74 in 10.0 mi SSW 13.8 mph 19.6 mph 0.00 in   Clear
2:35 AM 51.8 °F - 48.2 °F 88% 29.73 in 10.0 mi SSW 13.8 mph 21.9 mph 0.00 in   Clear
2:55 AM 51.8 °F - 48.2 °F 88% 29.73 in 10.0 mi SSW 13.8 mph 23.0 mph 0.00 in   Partly Cloudy
3:15 AM 51.8 °F - 48.2 °F 88% 29.72 in 10.0 mi SSW 16.1 mph 21.9 mph 0.00 in   Clear
3:35 AM 51.8 °F - 48.2 °F 88% 29.70 in 10.0 mi SSW 15.0 mph 21.9 mph 0.00 in   Scattered Clouds
3:55 AM 51.8 °F - 50.0 °F 94% 29.69 in 5.0 mi SSW 10.4 mph 19.6 mph 0.00 in   Mostly Cloudy
4:15 AM 51.8 °F - 51.8 °F 100% 29.67 in 5.0 mi SSW 15.0 mph 20.7 mph 0.00 in   Overcast
4:35 AM 51.8 °F - 51.8 °F 100% 29.66 in 5.0 mi SSW 15.0 mph 21.9 mph 0.00 in Rain Light Rain
4:55 AM 51.8 °F - 51.8 °F 100% 29.67 in 3.0 mi SW 19.6 mph 27.6 mph 0.00 in Rain Light Rain
5:15 AM 51.8 °F - 51.8 °F 100% 29.67 in 6.0 mi SW 15.0 mph 29.9 mph 0.00 in   Light Drizzle
5:35 AM 51.8 °F - 51.8 °F 100% 29.66 in 7.0 mi SW 12.7 mph 18.4 mph 0.00 in   Light Drizzle
5:55 AM 50.0 °F - 50.0 °F 100% 29.66 in 8.0 mi SW 13.8 mph 19.6 mph 0.00 in   Mostly Cloudy
6:15 AM 50.0 °F - 50.0 °F 100% 29.67 in 7.0 mi SW 12.7 mph - 0.00 in   Scattered Clouds
6:35 AM 50.0 °F - 50.0 °F 100% 29.67 in 8.0 mi SW 12.7 mph - 0.00 in   Mostly Cloudy
6:55 AM 51.8 °F - 51.8 °F 100% 29.69 in 9.0 mi WSW 10.4 mph 20.7 mph 0.00 in   Overcast
7:15 AM 51.8 °F - 50.0 °F 94% 29.71 in 10.0 mi West 11.5 mph 21.9 mph 0.00 in   Mostly Cloudy
7:35 AM 51.8 °F - 50.0 °F 94% 29.72 in 10.0 mi West 13.8 mph 20.7 mph 0.00 in   Overcast
7:55 AM 51.8 °F - 48.2 °F 88% 29.73 in 10.0 mi West 16.1 mph 27.6 mph 0.00 in   Overcast
8:15 AM 51.8 °F - 46.4 °F 82% 29.74 in 10.0 mi West 15.0 mph 20.7 mph 0.00 in   Mostly Cloudy
8:35 AM 51.8 °F - 46.4 °F 82% 29.75 in 10.0 mi West 17.3 mph 27.6 mph 0.00 in   Mostly Cloudy
8:55 AM 51.8 °F - 44.6 °F 76% 29.77 in 10.0 mi West 18.4 mph 31.1 mph 0.00 in   Overcast
9:15 AM 51.8 °F - 44.6 °F 76% 29.77 in 10.0 mi West 16.1 mph 28.8 mph 0.00 in   Mostly Cloudy
9:35 AM 53.6 °F - 44.6 °F 72% 29.78 in 10.0 mi West 19.6 mph 34.5 mph 0.00 in   Partly Cloudy
9:55 AM 53.6 °F - 44.6 °F 72% 29.79 in 10.0 mi WNW 20.7 mph 34.5 mph 0.00 in   Scattered Clouds
10:15 AM 53.6 °F - 44.6 °F 72% 29.80 in 10.0 mi West 20.7 mph 29.9 mph 0.00 in   Mostly Cloudy
10:35 AM 53.6 °F - 44.6 °F 72% 29.81 in 10.0 mi West 19.6 mph 27.6 mph 0.00 in   Mostly Cloudy
10:55 AM 53.6 °F - 42.8 °F 67% 29.82 in 10.0 mi WNW 19.6 mph 29.9 mph 0.00 in   Scattered Clouds
11:15 AM 53.6 °F - 41.0 °F 62% 29.83 in 10.0 mi West 23.0 mph 29.9 mph 0.00 in   Scattered Clouds
11:35 AM 55.4 °F - 39.2 °F 54% 29.83 in 10.0 mi WNW 20.7 mph 28.8 mph 0.00 in   Scattered Clouds
11:55 AM 55.4 °F - 39.2 °F 54% 29.84 in 10.0 mi WNW 18.4 mph 27.6 mph 0.00 in   Partly Cloudy
12:15 PM 57.2 °F - 39.2 °F 51% 29.85 in 10.0 mi West 17.3 mph 27.6 mph 0.00 in   Clear
12:35 PM 57.2 °F - 39.2 °F 51% 29.85 in 10.0 mi West 18.4 mph 25.3 mph 0.00 in   Clear
12:55 PM 57.2 °F - 37.4 °F 48% 29.86 in 10.0 mi West 21.9 mph 31.1 mph 0.00 in   Clear
1:15 PM 57.2 °F - 39.2 °F 51% 29.86 in 10.0 mi WNW 21.9 mph 29.9 mph 0.00 in   Clear
1:35 PM 57.2 °F - 37.4 °F 48% 29.85 in 10.0 mi West 20.7 mph 32.2 mph 0.00 in   Clear
1:55 PM 60.8 °F - 37.4 °F 42% 29.85 in 10.0 mi NW 18.4 mph 28.8 mph 0.00 in   Clear
2:15 PM 60.8 °F - 35.6 °F 39% 29.85 in 10.0 mi WNW 21.9 mph 28.8 mph 0.00 in   Clear
2:35 PM 59.0 °F - 35.6 °F 42% 29.87 in 10.0 mi WNW 21.9 mph 29.9 mph 0.00 in   Clear
2:55 PM 59.0 °F - 35.6 °F 42% 29.88 in 10.0 mi West 17.3 mph 28.8 mph 0.00 in   Clear
3:15 PM 60.8 °F - 35.6 °F 39% 29.89 in 10.0 mi WNW 18.4 mph 27.6 mph 0.00 in   Clear
3:35 PM 60.8 °F - 35.6 °F 39% 29.90 in 10.0 mi NW 19.6 mph 27.6 mph 0.00 in   Clear
3:55 PM 59.0 °F - 33.8 °F 39% 29.92 in 10.0 mi NW 19.6 mph 25.3 mph 0.00 in   Clear
4:15 PM 60.8 °F - 33.8 °F 36% 29.93 in 10.0 mi NW 16.1 mph 25.3 mph 0.00 in   Clear
4:35 PM 57.2 °F - 33.8 °F 41% 29.95 in 10.0 mi WNW 19.6 mph 25.3 mph 0.00 in   Clear
4:55 PM 57.2 °F - 33.8 °F 41% 29.97 in 10.0 mi WNW 13.8 mph 24.2 mph 0.00 in   Clear
5:15 PM 57.2 °F - 33.8 °F 41% 29.97 in 10.0 mi West 17.3 mph 23.0 mph 0.00 in   Clear
5:35 PM 55.4 °F - 33.8 °F 44% 29.98 in 10.0 mi West 16.1 mph 24.2 mph 0.00 in   Clear
5:55 PM 55.4 °F - 33.8 °F 44% 30.01 in 10.0 mi WNW 16.1 mph - 0.00 in   Clear
6:15 PM 53.6 °F - 32.0 °F 44% 30.01 in 10.0 mi WNW 8.1 mph - 0.00 in   Clear
6:35 PM 51.8 °F - 32.0 °F 47% 30.02 in 10.0 mi WNW 8.1 mph - 0.00 in   Clear
6:55 PM 51.8 °F - 32.0 °F 47% 30.03 in 10.0 mi West 5.8 mph - 0.00 in   Clear
7:15 PM 51.8 °F - 32.0 °F 47% 30.04 in 10.0 mi West 3.5 mph - 0.00 in   Clear
7:35 PM 48.2 °F - 32.0 °F 54% 30.05 in 10.0 mi Calm Calm - 0.00 in   Clear
7:55 PM 46.4 °F - 33.8 °F 62% 30.06 in 10.0 mi Calm Calm - 0.00 in   Clear
8:15 PM 44.6 °F - 33.8 °F 66% 30.07 in 10.0 mi Calm Calm - 0.00 in   Clear
8:35 PM 44.6 °F - 33.8 °F 66% 30.07 in 10.0 mi Calm Calm - 0.00 in   Clear
8:55 PM 42.8 °F - 33.8 °F 70% 30.08 in 10.0 mi Calm Calm - 0.00 in   Clear
9:15 PM 42.8 °F - 32.0 °F 66% 30.10 in 10.0 mi Calm Calm - 0.00 in   Clear
9:35 PM 42.8 °F 38.6 °F 32.0 °F 66% 30.11 in 10.0 mi West 6.9 mph - 0.00 in   Clear
9:55 PM 44.6 °F - 32.0 °F 61% 30.10 in 10.0 mi Calm Calm - 0.00 in   Clear
10:15 PM 42.8 °F - 32.0 °F 66% 30.09 in 10.0 mi Calm Calm - 0.00 in   Clear
10:35 PM 41.0 °F - 32.0 °F 70% 30.09 in 10.0 mi Calm Calm - 0.00 in   Clear
10:55 PM 39.2 °F 34.2 °F 32.0 °F 75% 30.10 in 10.0 mi West 6.9 mph - 0.00 in   Clear
11:15 PM 39.2 °F 33.6 °F 32.0 °F 75% 30.10 in 10.0 mi NW 8.1 mph - 0.00 in   Clear
11:35 PM 42.8 °F 39.3 °F 32.0 °F 66% 30.09 in 10.0 mi WNW 5.8 mph - 0.00 in   Clear
11:55 PM 42.8 °F 39.3 °F 32.0 °F 66% 30.09 in 10.0 mi WNW 5.8 mph - 0.00 in   Clear